createdAt,value
2022-09-21T00:01:21.604Z,77.90
2022-09-21T00:03:52.513Z,78.20
2022-09-21T00:06:21.366Z,77.90
2022-09-21T00:08:48.702Z,77.90
2022-09-21T00:11:27.530Z,77.90
2022-09-21T00:13:58.897Z,77.70
2022-09-21T00:16:25.849Z,77.70
2022-09-21T00:18:52.870Z,77.80
2022-09-21T00:21:19.835Z,77.80
2022-09-21T00:23:46.960Z,77.90
2022-09-21T00:26:19.958Z,77.80
2022-09-21T00:28:47.578Z,77.80
2022-09-21T00:31:18.246Z,77.60
2022-09-21T00:33:45.242Z,77.60
2022-09-21T00:36:14.426Z,77.50
2022-09-21T00:38:41.545Z,77.50
2022-09-21T00:41:09.954Z,77.50
2022-09-21T00:43:40.198Z,77.60
2022-09-21T00:46:29.696Z,77.50
2022-09-21T00:48:58.146Z,78.20
2022-09-21T00:51:25.825Z,77.30
2022-09-21T00:53:58.378Z,77.30
2022-09-21T00:56:25.924Z,77.40
2022-09-21T00:58:54.986Z,77.40
2022-09-21T01:01:22.357Z,77.60
2022-09-21T01:03:51.430Z,77.60
2022-09-21T01:06:20.450Z,77.70
2022-09-21T01:08:54.250Z,77.50
2022-09-21T01:11:34.524Z,77.50
2022-09-21T01:14:19.818Z,77.60
2022-09-21T01:16:52.711Z,77.50
2022-09-21T01:19:37.419Z,77.60
2022-09-21T01:22:25.831Z,77.60
2022-09-21T01:25:14.373Z,77.50
2022-09-21T01:28:06.909Z,77.50
2022-09-21T01:30:36.281Z,77.50
2022-09-21T01:33:13.968Z,77.50
2022-09-21T01:36:10.375Z,77.50
2022-09-21T01:38:45.981Z,77.50
2022-09-21T01:41:16.404Z,77.60
2022-09-21T01:43:45.659Z,77.50
2022-09-21T01:46:18.461Z,77.50
2022-09-21T01:48:50.201Z,77.50
2022-09-21T01:51:19.942Z,77.50
2022-09-21T01:53:56.174Z,77.50
2022-09-21T01:56:38.411Z,77.50
2022-09-21T01:59:16.414Z,77.50
2022-09-21T02:01:54.880Z,77.50
2022-09-21T02:04:22.017Z,77.40
2022-09-21T02:06:50.095Z,77.50
2022-09-21T02:09:17.977Z,77.40
2022-09-21T02:11:45.142Z,77.50
2022-09-21T02:14:22.415Z,77.50
2022-09-21T02:17:26.453Z,77.50
2022-09-21T02:20:03.020Z,77.50
2022-09-21T02:22:50.235Z,77.50
2022-09-21T02:25:27.501Z,77.60
2022-09-21T02:27:56.409Z,77.60
2022-09-21T02:30:26.938Z,77.60
2022-09-21T02:33:01.133Z,77.60
2022-09-21T02:35:52.033Z,77.70
2022-09-21T02:38:30.537Z,77.60
2022-09-21T02:41:00.122Z,78.60
2022-09-21T02:43:34.041Z,77.80
2022-09-21T02:46:11.480Z,77.70
2022-09-21T02:48:47.373Z,77.80
2022-09-21T02:51:19.704Z,77.80
2022-09-21T02:53:47.788Z,77.80
2022-09-21T02:56:15.961Z,77.70
2022-09-21T02:58:50.308Z,77.60
2022-09-21T03:01:19.111Z,77.50
2022-09-21T03:03:45.753Z,77.40
2022-09-21T03:06:12.411Z,78.30
2022-09-21T03:08:39.100Z,77.40
2022-09-21T03:11:05.997Z,77.50
2022-09-21T03:13:32.846Z,77.40
2022-09-21T03:16:05.374Z,77.50
2022-09-21T03:18:33.159Z,77.60
2022-09-21T03:21:00.283Z,77.70
2022-09-21T03:23:26.927Z,77.80
2022-09-21T03:25:54.573Z,77.90
2022-09-21T03:28:22.169Z,77.80
2022-09-21T03:30:50.276Z,77.90
2022-09-21T03:33:20.477Z,77.80
2022-09-21T03:35:51.388Z,77.80
2022-09-21T03:38:18.796Z,77.90
2022-09-21T03:40:47.110Z,78.00
2022-09-21T03:43:13.782Z,78.00
2022-09-21T03:45:43.438Z,77.90
2022-09-21T03:48:11.613Z,77.90
2022-09-21T03:50:38.749Z,77.90
2022-09-21T03:53:05.793Z,78.00
2022-09-21T03:55:33.215Z,78.00
2022-09-21T03:57:59.920Z,78.10
2022-09-21T04:00:27.257Z,78.10
2022-09-21T04:02:54.306Z,78.20
2022-09-21T04:05:21.018Z,78.20
2022-09-21T04:07:48.031Z,78.30
2022-09-21T04:10:27.062Z,78.30
2022-09-21T04:12:57.948Z,78.30
2022-09-21T04:15:24.837Z,78.40
2022-09-21T04:17:53.235Z,78.50
2022-09-21T04:20:21.722Z,78.50
2022-09-21T04:22:48.555Z,78.60
2022-09-21T04:25:16.465Z,78.60
2022-09-21T04:27:43.353Z,78.60
2022-09-21T04:30:14.254Z,78.60
2022-09-21T04:32:41.131Z,78.60
2022-09-21T04:35:08.371Z,78.70
2022-09-21T04:37:35.084Z,78.80
2022-09-21T04:40:02.109Z,78.90
2022-09-21T04:42:29.152Z,78.90
2022-09-21T04:44:56.104Z,78.90
2022-09-21T04:47:25.121Z,79.00
2022-09-21T04:49:52.805Z,79.10
2022-09-21T04:52:19.941Z,79.20
2022-09-21T04:54:47.472Z,79.20
2022-09-21T04:57:14.826Z,79.20
2022-09-21T04:59:41.459Z,79.20
2022-09-21T05:02:08.207Z,79.40
2022-09-21T05:04:34.965Z,79.40
2022-09-21T05:07:01.601Z,79.40
2022-09-21T05:09:46.808Z,79.50
2022-09-21T05:12:13.529Z,79.40
2022-09-21T05:14:40.968Z,79.40
2022-09-21T05:17:07.668Z,79.40
2022-09-21T05:19:34.366Z,79.50
2022-09-21T05:22:01.012Z,80.30
2022-09-21T05:24:27.671Z,79.40
2022-09-21T05:26:54.322Z,79.30
2022-09-21T05:29:21.295Z,79.20
2022-09-21T05:32:20.638Z,79.30
2022-09-21T05:35:06.482Z,79.20
2022-09-21T05:37:48.041Z,79.20
2022-09-21T05:40:15.298Z,79.20
2022-09-21T05:42:42.401Z,79.20
2022-09-21T05:45:14.193Z,79.30
2022-09-21T05:47:55.589Z,79.30
2022-09-21T05:50:57.298Z,79.30
2022-09-21T05:53:55.445Z,79.40
2022-09-21T05:56:33.814Z,79.40
2022-09-21T05:59:24.871Z,80.20
2022-09-21T06:01:57.494Z,79.40
2022-09-21T06:04:24.543Z,79.50
2022-09-21T06:06:51.416Z,79.60
2022-09-21T06:09:18.225Z,79.50
2022-09-21T06:11:44.904Z,79.60
2022-09-21T06:14:11.529Z,79.80
2022-09-21T06:16:42.678Z,79.70
2022-09-21T06:19:13.173Z,79.70
2022-09-21T06:21:39.883Z,79.80
2022-09-21T06:24:06.638Z,79.90
2022-09-21T06:26:33.429Z,80.00
2022-09-21T06:29:00.337Z,80.00
2022-09-21T06:31:27.915Z,80.10
2022-09-21T06:33:54.704Z,80.10
2022-09-21T06:36:21.349Z,80.20
2022-09-21T06:38:48.036Z,80.30
2022-09-21T06:41:20.100Z,80.30
2022-09-21T06:43:47.797Z,80.40
2022-09-21T06:46:14.519Z,80.60
2022-09-21T06:48:41.161Z,81.50
2022-09-21T06:51:07.832Z,80.80
2022-09-21T06:53:35.046Z,80.90
2022-09-21T06:56:06.756Z,81.10
2022-09-21T06:58:34.659Z,81.20
2022-09-21T07:01:09.619Z,81.30
2022-09-21T07:03:37.078Z,81.40
2022-09-21T07:06:03.968Z,81.50
2022-09-21T07:11:17.251Z,81.70
2022-09-21T07:13:44.044Z,81.80
2022-09-21T07:16:12.549Z,81.90
2022-09-21T07:18:44.290Z,82.00
2022-09-21T07:21:11.925Z,82.10
2022-09-21T07:23:38.880Z,82.20
2022-09-21T07:26:11.486Z,82.40
2022-09-21T07:28:38.778Z,82.40
2022-09-21T07:31:14.163Z,82.60
2022-09-21T07:33:41.629Z,82.70
2022-09-21T07:36:12.974Z,83.00
2022-09-21T07:38:42.157Z,83.00
2022-09-21T07:41:10.914Z,83.20
2022-09-21T07:43:40.148Z,83.30
2022-09-21T07:46:12.824Z,83.60
2022-09-21T07:48:40.038Z,83.90
2022-09-21T07:51:10.088Z,84.20
2022-09-21T07:53:38.469Z,84.40
2022-09-21T07:56:13.603Z,85.40
2022-09-21T07:58:59.192Z,84.80
2022-09-21T08:01:26.830Z,84.90
2022-09-21T08:03:55.423Z,85.10
2022-09-21T08:06:23.372Z,85.00
2022-09-21T08:08:55.062Z,85.10
2022-09-21T08:11:25.903Z,85.10
2022-09-21T08:13:54.597Z,85.20
2022-09-21T08:16:21.505Z,85.20
2022-09-21T08:18:48.320Z,85.10
2022-09-21T08:21:15.026Z,85.10
2022-09-21T08:23:42.587Z,85.10
2022-09-21T08:26:19.115Z,85.10
2022-09-21T08:28:49.915Z,84.90
2022-09-21T08:31:19.551Z,84.80
2022-09-21T08:33:47.607Z,85.50
2022-09-21T08:36:14.305Z,84.70
2022-09-21T08:38:41.197Z,84.50
2022-09-21T08:41:22.659Z,84.40
2022-09-21T08:44:05.735Z,84.00
2022-09-21T08:46:34.122Z,83.80
2022-09-21T08:49:07.125Z,83.60
2022-09-21T08:51:37.636Z,83.40
2022-09-21T08:54:15.232Z,82.90
2022-09-21T08:57:04.029Z,82.60
2022-09-21T08:59:28.755Z,81.80
2022-09-21T09:02:20.425Z,81.60
2022-09-21T09:04:57.991Z,81.50
2022-09-21T09:07:54.338Z,81.40
2022-09-21T09:10:35.777Z,81.20
2022-09-21T09:13:20.525Z,81.20
2022-09-21T09:16:02.281Z,80.80
2022-09-21T09:18:51.969Z,80.10
2022-09-21T09:21:40.727Z,80.10
2022-09-21T09:24:28.043Z,80.00
2022-09-21T09:27:05.766Z,80.00
2022-09-21T09:29:49.504Z,79.60
2022-09-21T09:32:17.822Z,79.10
2022-09-21T09:35:17.191Z,79.20
2022-09-21T09:37:45.729Z,79.00
2022-09-21T09:40:14.411Z,78.90
2022-09-21T09:43:05.196Z,78.90
2022-09-21T09:45:53.494Z,78.30
2022-09-21T09:48:53.344Z,77.60
2022-09-21T09:51:20.921Z,77.50
2022-09-21T09:53:47.629Z,75.70
2022-09-21T09:56:14.820Z,75.20
2022-09-21T09:58:48.197Z,75.20
2022-09-21T10:01:36.595Z,75.10
2022-09-21T10:04:07.055Z,74.70
2022-09-21T10:06:34.070Z,74.80
2022-09-21T10:09:01.033Z,74.90
2022-09-21T10:11:38.474Z,74.50
2022-09-21T10:14:10.683Z,74.20
2022-09-21T10:16:44.091Z,73.00
2022-09-21T10:19:19.055Z,72.90
2022-09-21T10:21:51.861Z,72.40
2022-09-21T10:24:27.899Z,72.20
2022-09-21T10:27:02.173Z,71.60
2022-09-21T10:29:33.631Z,71.90
2022-09-21T10:32:14.553Z,72.50
2022-09-21T10:34:59.981Z,70.50
2022-09-21T10:37:34.797Z,70.80
2022-09-21T10:40:01.945Z,70.10
2022-09-21T10:42:36.302Z,69.80
2022-09-21T10:45:18.097Z,69.10
2022-09-21T10:47:48.716Z,67.90
2022-09-21T10:50:25.623Z,68.40
2022-09-21T10:52:59.517Z,68.00
2022-09-21T10:55:28.154Z,67.90
2022-09-21T10:57:55.646Z,67.70
2022-09-21T11:00:25.024Z,66.60
2022-09-21T11:02:52.439Z,66.70
2022-09-21T11:05:31.573Z,67.10
2022-09-21T11:08:12.525Z,66.30
2022-09-21T11:11:12.940Z,66.10
2022-09-21T11:14:01.118Z,65.70
2022-09-21T11:16:41.531Z,64.80
2022-09-21T11:19:20.404Z,66.50
2022-09-21T11:22:01.098Z,65.50
2022-09-21T11:24:45.894Z,66.40
2022-09-21T11:27:27.917Z,65.70
2022-09-21T11:30:19.431Z,66.20
2022-09-21T11:33:02.939Z,64.90
2022-09-21T11:36:01.848Z,64.90
2022-09-21T11:38:56.044Z,62.90
2022-09-21T11:41:35.743Z,63.10
2022-09-21T11:44:24.335Z,63.90
2022-09-21T11:47:02.216Z,64.20
2022-09-21T11:50:19.582Z,64.20
2022-09-21T11:52:58.786Z,63.90
2022-09-21T11:56:02.728Z,64.50
2022-09-21T11:58:53.036Z,63.60
2022-09-21T12:01:38.675Z,63.90
2022-09-21T12:04:24.148Z,64.10
2022-09-21T12:07:06.417Z,64.10
2022-09-21T12:09:36.692Z,64.20
2022-09-21T12:12:09.419Z,64.30
2022-09-21T12:15:12.839Z,61.70
2022-09-21T12:18:00.918Z,63.10
2022-09-21T12:21:02.355Z,61.10
2022-09-21T12:23:43.549Z,60.20
2022-09-21T12:26:15.286Z,60.30
2022-09-21T12:28:59.111Z,60.30
2022-09-21T12:31:34.792Z,59.10
2022-09-21T12:34:13.306Z,59.30
2022-09-21T12:36:44.807Z,60.50
2022-09-21T12:39:21.821Z,60.60
2022-09-21T12:41:59.856Z,60.70
2022-09-21T12:44:53.387Z,60.50
2022-09-21T12:47:48.527Z,60.50
2022-09-21T12:50:31.205Z,60.50
2022-09-21T12:52:59.075Z,60.00
2022-09-21T12:55:34.380Z,59.90
2022-09-21T12:58:17.055Z,58.60
2022-09-21T13:01:05.824Z,58.10
2022-09-21T13:03:45.174Z,58.80
2022-09-21T13:06:41.759Z,58.30
2022-09-21T13:09:13.263Z,58.40
2022-09-21T13:12:01.461Z,58.90
2022-09-21T13:14:36.142Z,58.20
2022-09-21T13:17:05.687Z,59.00
2022-09-21T13:19:34.981Z,59.10
2022-09-21T13:22:19.097Z,59.40
2022-09-21T13:25:10.022Z,58.70
2022-09-21T13:28:01.979Z,59.10
2022-09-21T13:30:33.684Z,58.90
2022-09-21T13:33:02.021Z,59.60
2022-09-21T13:35:52.889Z,59.70
2022-09-21T13:38:37.405Z,59.70
2022-09-21T13:41:19.325Z,60.30
2022-09-21T13:44:04.389Z,60.60
2022-09-21T13:46:34.905Z,60.70
2022-09-21T13:49:10.591Z,61.30
2022-09-21T13:52:00.740Z,61.50
2022-09-21T13:54:31.260Z,61.30
2022-09-21T13:57:27.040Z,62.20
2022-09-21T14:00:12.712Z,61.00
2022-09-21T14:02:49.517Z,61.10
2022-09-21T14:05:34.039Z,61.70
2022-09-21T14:08:05.185Z,60.50
2022-09-21T14:10:37.337Z,59.00
2022-09-21T14:13:24.473Z,58.30
2022-09-21T14:15:51.618Z,56.70
2022-09-21T14:18:33.846Z,54.80
2022-09-21T14:21:09.265Z,52.70
2022-09-21T14:23:37.715Z,51.50
2022-09-21T14:26:32.162Z,50.00
2022-09-21T14:28:59.010Z,48.20
2022-09-21T14:31:29.714Z,49.60
2022-09-21T14:34:00.076Z,47.20
2022-09-21T14:36:38.335Z,46.20
2022-09-21T14:39:07.815Z,47.60
2022-09-21T14:41:40.934Z,47.60
2022-09-21T14:44:18.653Z,47.20
2022-09-21T14:47:08.051Z,48.70
2022-09-21T14:49:50.146Z,45.90
2022-09-21T14:52:35.390Z,47.10
2022-09-21T14:55:31.302Z,46.80
2022-09-21T14:58:16.448Z,45.70
2022-09-21T15:00:46.145Z,45.90
2022-09-21T15:03:31.747Z,45.70
2022-09-21T15:06:40.167Z,45.00
2022-09-21T15:09:49.499Z,45.60
2022-09-21T15:12:21.368Z,45.40
2022-09-21T15:15:01.432Z,46.60
2022-09-21T15:17:32.862Z,47.00
2022-09-21T15:20:01.107Z,47.60
2022-09-21T15:22:28.136Z,48.00
2022-09-21T15:24:56.865Z,48.00
2022-09-21T15:27:27.025Z,48.50
2022-09-21T15:29:54.741Z,49.00
2022-09-21T15:32:38.851Z,48.50
2022-09-21T15:35:16.347Z,49.90
2022-09-21T15:37:43.451Z,50.50
2022-09-21T15:40:23.361Z,51.60
2022-09-21T15:43:02.162Z,53.10
2022-09-21T15:45:37.238Z,54.20
2022-09-21T15:48:13.000Z,54.60
2022-09-21T15:50:43.010Z,55.10
2022-09-21T15:53:21.749Z,55.60
2022-09-21T15:55:49.482Z,56.10
2022-09-21T15:58:37.199Z,55.80
2022-09-21T16:01:11.057Z,55.90
2022-09-21T16:03:39.105Z,55.40
2022-09-21T16:06:35.106Z,54.80
2022-09-21T16:09:24.830Z,53.50
2022-09-21T16:11:52.860Z,54.30
2022-09-21T16:14:38.808Z,54.70
2022-09-21T16:17:20.356Z,55.10
2022-09-21T16:19:56.671Z,54.90
2022-09-21T16:22:41.555Z,54.10
2022-09-21T16:25:20.371Z,51.90
2022-09-21T16:27:56.179Z,52.30
2022-09-21T16:30:42.426Z,52.30
2022-09-21T16:33:41.362Z,52.40
2022-09-21T16:36:17.087Z,52.00
2022-09-21T16:38:47.040Z,52.10
2022-09-21T16:41:14.800Z,52.30
2022-09-21T16:43:43.719Z,52.30
2022-09-21T16:46:11.401Z,52.20
2022-09-21T16:48:38.163Z,52.30
2022-09-21T16:51:11.695Z,52.60
2022-09-21T16:53:38.363Z,53.10
2022-09-21T16:56:06.996Z,53.40
2022-09-21T16:58:33.772Z,54.00
2022-09-21T17:01:01.258Z,54.60
2022-09-21T17:03:30.658Z,55.30
2022-09-21T17:05:57.490Z,55.50
2022-09-21T17:08:24.523Z,55.90
2022-09-21T17:10:51.355Z,56.30
2022-09-21T17:13:19.203Z,56.60
2022-09-21T17:15:48.013Z,56.90
2022-09-21T17:18:15.315Z,57.30
2022-09-21T17:20:44.914Z,57.70
2022-09-21T17:23:12.322Z,58.10
2022-09-21T17:25:38.967Z,58.30
2022-09-21T17:28:14.882Z,58.80
2022-09-21T17:30:42.529Z,59.10
2022-09-21T17:33:10.784Z,59.60
2022-09-21T17:35:39.873Z,61.00
2022-09-21T17:38:14.392Z,60.60
2022-09-21T17:40:42.877Z,60.80
2022-09-21T17:43:38.183Z,60.90
2022-09-21T17:46:50.907Z,61.20
2022-09-21T17:49:18.705Z,62.30
2022-09-21T17:52:04.408Z,62.00
2022-09-21T17:54:31.334Z,62.10
2022-09-21T17:57:18.895Z,62.40
2022-09-21T17:59:53.263Z,62.70
2022-09-21T18:02:25.538Z,62.80
2022-09-21T18:05:01.446Z,63.00
2022-09-21T18:07:28.464Z,63.30
2022-09-21T18:09:55.591Z,63.40
2022-09-21T18:12:25.791Z,63.60
2022-09-21T18:14:57.554Z,64.70
2022-09-21T18:17:39.481Z,64.10
2022-09-21T18:20:51.142Z,64.30
2022-09-21T18:23:39.071Z,64.50
2022-09-21T18:26:10.163Z,64.70
2022-09-21T18:28:40.301Z,64.80
2022-09-21T18:31:26.698Z,65.00
2022-09-21T18:34:28.465Z,66.10
2022-09-21T18:37:12.906Z,65.30
2022-09-21T18:39:42.758Z,65.70
2022-09-21T18:42:30.618Z,65.90
2022-09-21T18:45:10.629Z,65.90
2022-09-21T18:47:40.357Z,66.00
2022-09-21T18:50:33.766Z,66.30
2022-09-21T18:53:15.252Z,66.40
2022-09-21T18:55:42.278Z,66.40
2022-09-21T18:58:10.267Z,66.60
2022-09-21T19:00:37.148Z,66.80
2022-09-21T19:03:17.685Z,66.90
2022-09-21T19:06:02.263Z,66.90
2022-09-21T19:09:06.626Z,67.00
2022-09-21T19:12:27.521Z,67.30
2022-09-21T19:15:42.089Z,67.20
2022-09-21T19:18:36.247Z,67.70
2022-09-21T19:21:31.951Z,67.60
2022-09-21T19:24:21.499Z,67.80
2022-09-21T19:27:27.671Z,67.80
2022-09-21T19:30:07.050Z,67.90
2022-09-21T19:32:45.751Z,68.00
2022-09-21T19:35:21.066Z,68.20
2022-09-21T19:37:48.956Z,68.20
2022-09-21T19:40:17.821Z,68.30
2022-09-21T19:43:13.318Z,68.40
2022-09-21T19:46:04.874Z,68.60
2022-09-21T19:48:59.822Z,68.60
2022-09-21T19:51:42.770Z,68.70
2022-09-21T19:54:35.808Z,68.60
2022-09-21T19:57:31.488Z,68.80
2022-09-21T19:59:59.074Z,68.90
2022-09-21T20:02:38.417Z,69.20
2022-09-21T20:05:11.449Z,69.00
2022-09-21T20:08:09.497Z,69.30
2022-09-21T20:10:38.836Z,69.20
2022-09-21T20:13:32.732Z,69.30
2022-09-21T20:16:19.163Z,69.30
2022-09-21T20:18:59.610Z,69.30
2022-09-21T20:21:37.069Z,69.40
2022-09-21T20:24:14.176Z,69.60
2022-09-21T20:26:42.249Z,69.50
2022-09-21T20:29:09.230Z,69.60
2022-09-21T20:31:35.873Z,69.50
2022-09-21T20:34:02.496Z,69.80
2022-09-21T20:36:29.466Z,69.70
2022-09-21T20:38:57.702Z,69.70
2022-09-21T20:41:24.997Z,69.80
2022-09-21T20:43:51.630Z,69.80
2022-09-21T20:46:18.293Z,70.00
2022-09-21T20:48:44.943Z,69.80
2022-09-21T20:51:12.996Z,69.90
2022-09-21T20:53:40.421Z,70.00
2022-09-21T20:56:07.023Z,70.10
2022-09-21T20:58:35.337Z,70.00
2022-09-21T21:01:09.305Z,70.10
2022-09-21T21:03:36.088Z,70.10
2022-09-21T21:06:11.033Z,70.10
2022-09-21T21:08:38.130Z,70.10
2022-09-21T21:11:05.329Z,70.10
2022-09-21T21:13:32.269Z,70.20
2022-09-21T21:16:00.156Z,70.30
2022-09-21T21:18:27.469Z,70.30
2022-09-21T21:20:54.161Z,70.50
2022-09-21T21:23:20.766Z,70.50
2022-09-21T21:25:47.975Z,70.50
2022-09-21T21:28:14.738Z,70.50
2022-09-21T21:30:41.447Z,70.70
2022-09-21T21:33:08.095Z,70.80
2022-09-21T21:35:34.912Z,70.80
2022-09-21T21:38:02.333Z,70.70
2022-09-21T21:40:29.123Z,70.80
2022-09-21T21:42:56.335Z,70.70
2022-09-21T21:45:23.069Z,70.80
2022-09-21T21:47:49.750Z,70.90
2022-09-21T21:50:16.599Z,70.80
2022-09-21T21:52:45.036Z,70.80
2022-09-21T21:55:12.029Z,71.00
2022-09-21T21:57:38.716Z,71.00
2022-09-21T22:00:07.553Z,70.90
2022-09-21T22:02:34.366Z,70.80
2022-09-21T22:05:01.054Z,70.80
2022-09-21T22:07:27.759Z,71.00
2022-09-21T22:09:54.420Z,71.00
2022-09-21T22:12:22.000Z,71.10
2022-09-21T22:14:49.434Z,71.10
2022-09-21T22:17:16.088Z,71.20
2022-09-21T22:19:42.938Z,71.20
2022-09-21T22:22:09.603Z,71.20
2022-09-21T22:24:36.272Z,71.30
2022-09-21T22:27:02.897Z,71.30
2022-09-21T22:29:29.551Z,71.30
2022-09-21T22:31:56.954Z,71.30
2022-09-21T22:34:23.653Z,71.40
2022-09-21T22:36:50.663Z,71.30
2022-09-21T22:39:17.533Z,71.30
2022-09-21T22:41:44.160Z,71.40
2022-09-21T22:44:11.325Z,71.40
2022-09-21T22:46:38.759Z,71.40
2022-09-21T22:49:06.035Z,71.40
2022-09-21T22:51:33.096Z,71.40
2022-09-21T22:54:01.424Z,71.40
2022-09-21T22:56:30.819Z,71.50
2022-09-21T22:59:00.160Z,71.50
2022-09-21T23:01:29.587Z,71.50
2022-09-21T23:03:59.408Z,71.50
2022-09-21T23:06:29.092Z,71.60
2022-09-21T23:08:57.301Z,71.60
2022-09-21T23:11:30.324Z,71.70
2022-09-21T23:13:58.120Z,71.80
2022-09-21T23:16:26.305Z,71.70
2022-09-21T23:18:53.704Z,71.90
2022-09-21T23:21:22.861Z,72.00
2022-09-21T23:23:50.028Z,71.80
2022-09-21T23:26:22.675Z,71.80
2022-09-21T23:28:54.775Z,71.90
2022-09-21T23:31:22.563Z,72.00
2022-09-21T23:33:51.497Z,72.00
2022-09-21T23:36:22.322Z,71.90
2022-09-21T23:38:49.941Z,71.90
2022-09-21T23:41:21.972Z,71.90
2022-09-21T23:43:49.369Z,72.10
2022-09-21T23:46:18.395Z,72.00
2022-09-21T23:48:45.431Z,72.00
2022-09-21T23:51:12.280Z,72.30
2022-09-21T23:53:39.877Z,72.30
2022-09-21T23:56:07.521Z,72.20
2022-09-21T23:58:34.823Z,72.20
